Time;durP1;ratioP1;P1;durP2;ratioP2;P2;SDS_P1;SDS_P2;PMS_P1;PMS_P2;Temp;Humidity;BMP_temperature;BMP_pressure;BME280_temperature;BME280_humidity;BME280_pressure;Samples;Min_cycle;Max_cycle;Signal;HPM_P1;HPM_P2
2021/10/02 00:01:32;;;;;;;32.67;22.13;;;;;;;9.19;86.59;101367.04;1713900;81;26440;-77
2021/10/02 00:44:41;;;;;;;30.30;21.82;;;;;;;9.13;87.95;101308.84;1698861;83;27484;-78
2021/10/02 00:47:12;;;;;;;30.92;21.27;;;;;;;9.14;87.95;101308.36;1746376;80;25840;-78
2021/10/02 00:49:42;;;;;;;34.67;23.38;;;;;;;9.14;88.03;101308.36;1656492;84;25827;-78
2021/10/02 00:52:14;;;;;;;32.70;22.35;;;;;;;9.13;87.97;101304.84;1669338;83;25949;-78
2021/10/02 00:54:41;;;;;;;29.75;22.40;;;;;;;9.13;87.97;101307.51;1688590;83;25829;-78
2021/10/02 00:57:10;;;;;;;33.55;23.67;;;;;;;9.14;87.92;101301.67;1680945;83;27499;-79
2021/10/02 00:59:38;;;;;;;34.18;22.25;;;;;;;9.13;88.08;101298.16;1658694;81;25822;-78
2021/10/02 01:02:19;;;;;;;29.07;21.07;;;;;;;9.11;87.92;101296.14;1698568;82;26518;-78
2021/10/02 01:05:01;;;;;;;32.78;22.40;;;;;;;9.10;88.06;101294.98;1729274;82;25795;-78
2021/10/02 01:07:51;;;;;;;32.17;21.57;;;;;;;9.09;88.18;101291.46;1706359;82;25935;-78
2021/10/02 01:10:44;;;;;;;34.50;22.20;;;;;;;9.09;88.18;101291.46;1704043;82;27439;-78
2021/10/02 01:13:38;;;;;;;33.35;23.15;;;;;;;9.08;88.35;101282.28;1736521;81;25733;-78
2021/10/02 01:16:22;;;;;;;35.35;23.80;;;;;;;9.06;88.45;101281.60;1733510;81;26567;-78
2021/10/02 01:19:10;;;;;;;42.45;24.77;;;;;;;9.07;88.55;101277.91;1703061;82;25853;-78
2021/10/02 01:22:20;;;;;;;40.65;23.70;;;;;;;9.05;88.70;101275.41;1709352;81;25854;-77
2021/10/02 01:25:14;;;;;;;50.83;28.12;;;;;;;9.04;88.89;101273.75;1711357;81;28220;-78
2021/10/02 01:28:09;;;;;;;46.20;26.70;;;;;;;9.00;88.96;101265.69;1729733;82;25796;-77
2021/10/02 01:33:36;;;;;;;45.67;25.48;;;;;;;8.98;89.38;101266.88;1684147;81;26146;-78
2021/10/02 01:47:12;;;;;;;59.50;29.02;;;;;;;8.96;90.14;101258.19;1744037;81;25795;-78
2021/10/02 01:49:42;;;;;;;44.25;26.15;;;;;;;8.96;90.33;101253.66;1750598;80;25870;-78
2021/10/02 01:52:12;;;;;;;50.20;27.17;;;;;;;8.98;90.28;101249.51;1706665;81;27405;-78
2021/10/02 01:54:42;;;;;;;53.17;25.50;;;;;;;8.98;90.54;101246.31;1722394;81;26929;-78
2021/10/02 01:57:10;;;;;;;61.13;26.57;;;;;;;8.98;90.48;101249.51;1723047;81;25905;-78
2021/10/02 01:59:39;;;;;;;61.18;25.27;;;;;;;8.99;90.67;101252.50;1758128;81;25763;-78
2021/10/02 02:02:07;;;;;;;48.13;25.00;;;;;;;8.98;90.67;101244.98;1693721;82;25862;-78
2021/10/02 02:04:39;;;;;;;54.88;24.82;;;;;;;9.00;90.69;101246.98;1695062;81;27555;-78
2021/10/02 02:07:07;;;;;;;50.17;23.40;;;;;;;9.01;90.88;101242.00;1682131;82;26038;-78
2021/10/02 02:09:37;;;;;;;51.05;24.82;;;;;;;9.03;90.96;101240.48;1735373;82;25302;-78
2021/10/02 02:12:10;;;;;;;70.67;24.72;;;;;;;9.06;91.11;101239.69;1759662;80;25901;-78
2021/10/02 02:14:41;;;;;;;48.78;23.60;;;;;;;9.09;91.19;101228.66;1709595;81;25797;-78
2021/10/02 02:17:10;;;;;;;67.27;25.55;;;;;;;9.12;91.26;101227.50;1701330;83;28262;-77
2021/10/02 02:19:38;;;;;;;83.20;26.17;;;;;;;9.13;91.34;101229.19;1736617;81;25810;-78
2021/10/02 02:22:05;;;;;;;97.72;24.75;;;;;;;9.13;91.49;101225.99;1711282;81;26564;-78
2021/10/02 02:24:33;;;;;;;70.45;25.60;;;;;;;9.15;91.57;101224.52;1719465;81;25796;-78
2021/10/02 02:27:04;;;;;;;82.50;24.98;;;;;;;9.15;91.84;101218.65;1710692;81;25815;-78
2021/10/02 02:29:32;;;;;;;104.13;24.63;;;;;;;9.16;91.88;101219.00;1740907;81;27456;-78
2021/10/02 02:32:02;;;;;;;96.17;23.50;;;;;;;9.17;92.07;101217.98;1703185;82;25818;-78
2021/10/02 02:34:29;;;;;;;66.22;24.25;;;;;;;9.16;92.05;101219.00;1737904;81;25742;-78
2021/10/02 02:36:58;;;;;;;52.65;23.52;;;;;;;9.19;92.28;101217.35;1684759;81;25533;-78
2021/10/02 02:39:27;;;;;;;80.85;23.20;;;;;;;9.21;92.31;101213.17;1732258;82;25301;-78
2021/10/02 02:41:54;;;;;;;75.42;25.92;;;;;;;9.24;92.51;101213.67;1712768;82;27389;-78
2021/10/02 02:44:22;;;;;;;79.10;24.85;;;;;;;9.25;92.82;101206.00;1764939;80;25927;-78
2021/10/02 02:46:56;;;;;;;66.00;24.82;;;;;;;9.26;92.62;101211.67;1685298;81;25857;-78
2021/10/02 02:49:31;;;;;;;49.18;24.15;;;;;;;9.25;92.69;101211.35;1732821;81;26521;-78
2021/10/02 02:52:23;;;;;;;64.95;23.10;;;;;;;9.26;92.76;101207.66;1707964;82;25864;-78
2021/10/02 02:55:03;;;;;;;68.50;22.85;;;;;;;9.27;92.95;101209.84;1710134;82;27511;-78
2021/10/02 02:57:49;;;;;;;57.75;21.50;;;;;;;9.28;92.96;101207.00;1735617;81;25713;-78
2021/10/02 03:00:19;;;;;;;59.55;22.02;;;;;;;9.30;93.08;101202.84;1737385;81;25757;-78
2021/10/02 03:02:55;;;;;;;47.90;23.02;;;;;;;9.32;93.15;101204.33;1769077;80;25838;-78
2021/10/02 03:05:24;;;;;;;43.58;21.15;;;;;;;9.32;93.19;101194.97;1769117;80;25992;-78
2021/10/02 03:08:05;;;;;;;44.63;21.82;;;;;;;9.33;93.17;101189.13;1761621;80;27471;-78
2021/10/02 03:10:32;;;;;;;;;;;;;;;9.36;93.35;101197.33;1746503;81;25818;-78
2021/10/02 03:13:06;;;;;;;49.23;22.37;;;;;;;9.37;93.46;101196.34;1744168;81;25832;-78
2021/10/02 03:15:36;;;;;;;37.65;21.33;;;;;;;9.36;93.81;101197.33;1695454;81;25937;-78
2021/10/02 03:18:06;;;;;;;48.58;21.65;;;;;;;9.37;93.59;101195.81;1718036;81;25758;-78
2021/10/02 03:20:34;;;;;;;47.48;21.02;;;;;;;9.38;93.76;101198.84;1750725;81;27578;-78
2021/10/02 03:23:02;;;;;;;53.10;22.67;;;;;;;9.37;93.91;101194.48;1686699;81;25558;-78
2021/10/02 03:25:31;;;;;;;52.83;24.77;;;;;;;9.39;93.94;101196.48;1741484;80;25524;-78
2021/10/02 03:28:02;;;;;;;43.35;21.17;;;;;;;9.40;94.21;101195.50;1722090;81;25803;-78
2021/10/02 03:30:31;;;;;;;46.00;21.60;;;;;;;9.41;94.34;101195.01;1745236;81;26639;-78
2021/10/02 03:32:59;;;;;;;41.80;21.97;;;;;;;9.42;94.14;101189.98;1711442;81;28681;-78
2021/10/02 03:35:26;;;;;;;43.95;24.05;;;;;;;9.46;94.16;101195.33;1726244;81;26494;-79
2021/10/02 03:37:54;;;;;;;39.67;22.58;;;;;;;9.50;94.07;101189.98;1755550;81;25777;-78
2021/10/02 03:40:21;;;;;;;46.50;22.25;;;;;;;9.53;94.06;101185.16;1757840;81;26246;-78
2021/10/02 03:42:55;;;;;;;48.90;25.45;;;;;;;9.56;94.16;101187.48;1687056;83;25809;-78
2021/10/02 03:45:27;;;;;;;35.98;20.62;;;;;;;9.58;94.24;101188.68;1695653;82;27528;-78
2021/10/02 03:47:54;;;;;;;30.70;18.95;;;;;;;9.60;94.22;101186.15;1705709;82;25946;-78
2021/10/02 03:50:22;;;;;;;31.77;18.92;;;;;;;9.61;94.21;101184.31;1729681;82;26023;-78
2021/10/02 03:52:49;;;;;;;30.95;16.67;;;;;;;9.61;94.16;101179.81;1733239;82;25792;-78
2021/10/02 03:55:17;;;;;;;26.02;17.15;;;;;;;9.65;94.22;101177.62;1701175;82;25838;-78
2021/10/02 03:57:44;;;;;;;32.30;18.17;;;;;;;9.66;94.37;101181.98;1669515;82;28131;-78
2021/10/02 04:00:13;;;;;;;28.45;16.80;;;;;;;9.65;94.19;101185.16;1731272;82;25978;-78
2021/10/02 04:02:42;;;;;;;26.80;15.95;;;;;;;9.66;94.23;101176.64;1729224;81;25976;-78
2021/10/02 04:05:11;;;;;;;28.42;16.55;;;;;;;9.67;94.27;101173.79;1717872;82;25861;-78
2021/10/02 04:07:38;;;;;;;28.05;17.17;;;;;;;9.69;94.26;101169.60;1689028;82;25749;-78
2021/10/02 04:10:09;;;;;;;23.98;14.00;;;;;;;9.70;94.25;101165.94;1679885;82;27358;-78
2021/10/02 04:12:36;;;;;;;26.02;15.98;;;;;;;9.71;94.52;101170.30;1731882;82;25311;-78
2021/10/02 04:15:05;;;;;;;25.85;15.60;;;;;;;9.72;94.35;101163.93;1714858;82;25843;-78
2021/10/02 04:17:33;;;;;;;28.00;15.53;;;;;;;9.72;94.55;101176.81;1667065;82;25517;-78
2021/10/02 04:20:00;;;;;;;26.12;15.32;;;;;;;9.73;94.53;101164.28;1681678;81;25929;-78
2021/10/02 04:22:27;;;;;;;26.35;16.02;;;;;;;9.73;94.53;101165.09;1727758;82;27570;-78
2021/10/02 04:24:54;;;;;;;31.33;14.90;;;;;;;9.77;94.55;101157.59;1720145;81;25842;-79
2021/10/02 04:27:21;;;;;;;23.32;14.43;;;;;;;9.78;94.62;101164.59;1692115;83;25838;-79
2021/10/02 04:29:48;;;;;;;30.75;16.35;;;;;;;9.79;94.61;101160.44;1692277;83;26016;-78
2021/10/02 04:32:15;;;;;;;30.25;17.07;;;;;;;9.81;94.64;101161.10;1726131;83;25840;-78
2021/10/02 04:34:42;;;;;;;29.07;16.75;;;;;;;9.82;94.63;101155.22;1685287;83;27474;-78
2021/10/02 04:37:09;;;;;;;26.68;15.28;;;;;;;9.82;94.74;101155.22;1660330;83;26482;-78
2021/10/02 04:39:36;;;;;;;30.05;16.90;;;;;;;9.82;94.86;101148.53;1685823;83;25838;-78
2021/10/02 04:42:05;;;;;;;27.65;16.45;;;;;;;9.83;94.86;101151.06;1731222;81;26485;-78
2021/10/02 04:44:32;;;;;;;29.32;16.93;;;;;;;9.85;94.87;101154.90;1751973;81;25851;-78
2021/10/02 04:46:59;;;;;;;32.48;18.50;;;;;;;9.87;94.89;101151.05;1694673;83;27514;-78
2021/10/02 04:49:27;;;;;;;34.55;18.85;;;;;;;9.89;95.11;101146.86;1715654;81;26209;-78
2021/10/02 04:51:54;;;;;;;32.35;17.98;;;;;;;9.88;95.10;101148.70;1725081;82;26561;-78
2021/10/02 04:54:21;;;;;;;34.25;17.35;;;;;;;9.88;95.35;101153.23;1659764;83;25956;-79
2021/10/02 04:56:48;;;;;;;31.77;17.20;;;;;;;9.88;95.18;101151.38;1686133;81;25944;-78
2021/10/02 04:59:15;;;;;;;32.90;17.27;;;;;;;9.89;95.54;101149.54;1763567;80;27488;-78
2021/10/02 05:01:42;;;;;;;35.38;18.50;;;;;;;9.90;95.52;101145.87;1740028;80;25808;-78
2021/10/02 05:04:09;;;;;;;32.13;19.67;;;;;;;9.91;95.59;101151.55;1705968;82;25816;-78
2021/10/02 05:06:36;;;;;;;30.92;18.07;;;;;;;9.92;95.60;101147.88;1730476;82;25825;-78
2021/10/02 05:09:03;;;;;;;35.70;17.82;;;;;;;9.94;95.62;101148.02;1681233;82;25868;-78
2021/10/02 05:11:30;;;;;;;35.95;19.57;;;;;;;9.96;95.57;101147.38;1725200;82;27543;-78
2021/10/02 05:13:57;;;;;;;29.10;17.35;;;;;;;9.99;95.69;101143.50;1724283;81;26571;-78
2021/10/02 05:16:25;;;;;;;31.97;18.55;;;;;;;9.98;95.53;101141.34;1728036;81;26496;-79
2021/10/02 05:18:52;;;;;;;36.40;19.10;;;;;;;10.02;95.53;101144.51;1723946;82;25991;-79
2021/10/02 05:21:19;;;;;;;33.95;17.92;;;;;;;10.05;95.96;101135.63;1718205;82;25273;-78
2021/10/02 05:23:46;;;;;;;39.35;19.73;;;;;;;10.06;95.60;101135.13;1685294;83;28127;-78
2021/10/02 05:26:13;;;;;;;34.95;19.55;;;;;;;10.06;95.67;101135.97;1696270;82;26586;-78
2021/10/02 05:28:40;;;;;;;38.75;20.10;;;;;;;10.09;95.73;101138.81;1672119;82;25936;-78
2021/10/02 05:31:07;;;;;;;39.88;21.20;;;;;;;10.12;95.68;101135.81;1707871;82;25875;-78
2021/10/02 05:33:34;;;;;;;35.25;19.77;;;;;;;10.15;96.01;101140.00;1672615;81;25760;-78
2021/10/02 05:36:01;;;;;;;36.17;20.62;;;;;;;10.16;95.73;101137.14;1710030;82;28159;-78
2021/10/02 05:38:28;;;;;;;37.65;20.17;;;;;;;10.19;95.61;101131.45;1717353;82;25916;-78
2021/10/02 05:40:55;;;;;;;45.33;25.20;;;;;;;10.25;95.62;101133.94;1723363;82;25284;-78
2021/10/02 05:43:22;;;;;;;37.83;20.97;;;;;;;10.26;95.63;101123.08;1697501;82;26530;-78
2021/10/02 05:45:49;;;;;;;35.30;20.77;;;;;;;10.28;95.61;101125.08;1680428;83;26731;-78
2021/10/02 05:48:16;;;;;;;33.10;19.32;;;;;;;10.30;95.83;101132.44;1671126;82;27412;-78
2021/10/02 05:50:45;;;;;;;34.38;20.43;;;;;;;10.33;95.64;101130.73;1674227;82;26139;-78
2021/10/02 05:53:12;;;;;;;37.08;20.08;;;;;;;10.34;95.76;101127.56;1677158;82;25975;-78
2021/10/02 05:55:39;;;;;;;35.08;19.02;;;;;;;10.37;95.71;101136.07;1681754;82;25880;-78
2021/10/02 05:58:07;;;;;;;34.88;20.45;;;;;;;10.39;95.70;101136.73;1692727;83;44614;-78
2021/10/02 06:00:34;;;;;;;37.53;21.05;;;;;;;10.42;95.69;101136.89;1695858;82;28569;-79
2021/10/02 06:03:02;;;;;;;34.27;19.48;;;;;;;10.44;95.65;101131.70;1685446;83;26447;-78
2021/10/02 06:05:29;;;;;;;38.90;21.05;;;;;;;10.45;95.73;101136.07;1651830;82;25905;-78
2021/10/02 06:07:57;;;;;;;34.55;20.70;;;;;;;10.47;95.65;101135.89;1651574;82;25806;-78
2021/10/02 06:10:25;;;;;;;33.75;20.10;;;;;;;10.48;95.63;101128.17;1743610;81;25763;-78
2021/10/02 06:12:54;;;;;;;33.08;20.80;;;;;;;10.49;95.77;101137.89;1693243;82;27573;-78
2021/10/02 06:15:24;;;;;;;36.33;22.93;;;;;;;10.50;95.70;101129.67;1670804;82;26577;-79
2021/10/02 06:17:53;;;;;;;28.42;18.85;;;;;;;10.55;95.64;101138.03;1701211;82;26050;-81
2021/10/02 06:20:21;;;;;;;35.20;20.23;;;;;;;10.59;95.59;101131.81;1707155;82;25759;-79
2021/10/02 06:22:48;;;;;;;28.60;18.02;;;;;;;10.61;95.32;101134.66;1693723;83;25865;-79
2021/10/02 06:25:17;;;;;;;32.75;19.35;;;;;;;10.63;95.28;101139.33;1650355;82;27447;-78
2021/10/02 06:27:44;;;;;;;30.27;18.80;;;;;;;10.68;95.28;101144.17;1639338;83;25849;-79
2021/10/02 06:30:11;;;;;;;36.93;19.70;;;;;;;10.69;95.53;101141.30;1713438;82;25864;-79
2021/10/02 06:32:38;;;;;;;33.73;19.92;;;;;;;10.69;95.01;101149.88;1694932;83;25833;-79
2021/10/02 06:35:07;;;;;;;33.78;18.95;;;;;;;10.71;95.12;101151.34;1647371;83;25860;-79
2021/10/02 06:37:34;;;;;;;29.85;18.52;;;;;;;10.75;94.96;101149.17;1650992;81;27355;-79
2021/10/02 06:40:01;;;;;;;31.37;18.70;;;;;;;10.77;95.09;101137.27;1725245;81;26515;-79
2021/10/02 06:42:28;;;;;;;31.48;19.48;;;;;;;10.80;94.91;101144.95;1723150;81;25790;-79
2021/10/02 06:44:55;;;;;;;36.83;20.88;;;;;;;10.84;94.96;101135.55;1725377;81;26182;-79
2021/10/02 06:47:23;;;;;;;33.48;20.50;;;;;;;10.89;94.93;101140.38;1652036;82;25813;-79
2021/10/02 06:49:57;;;;;;;37.35;21.07;;;;;;;10.90;94.74;101124.64;1697319;82;27454;-79
2021/10/02 06:52:20;;;;;;;39.05;21.35;;;;;;;10.94;94.70;101132.66;1722919;81;25771;-78
2021/10/02 06:54:47;;;;;;;49.58;24.90;;;;;;;10.98;94.69;101127.77;1653223;82;25858;-79
2021/10/02 06:57:14;;;;;;;39.10;22.27;;;;;;;11.00;94.58;101121.23;1671788;82;26191;-79
2021/10/02 06:59:42;;;;;;;37.63;21.77;;;;;;;11.03;94.64;101126.25;1725669;81;26588;-80
2021/10/02 07:02:09;;;;;;;39.73;24.43;;;;;;;11.04;94.47;101125.72;1725982;81;28108;-79
2021/10/02 07:04:36;;;;;;;38.88;22.42;;;;;;;11.07;94.40;101120.86;1658559;81;25973;-79
2021/10/02 07:07:03;;;;;;;35.48;22.10;;;;;;;11.09;94.41;101128.71;1697277;82;26504;-78
2021/10/02 07:09:33;;;;;;;41.68;24.92;;;;;;;11.13;94.50;101120.14;1722705;81;25847;-79
2021/10/02 07:12:00;;;;;;;46.05;27.40;;;;;;;11.17;94.56;101123.29;1724364;82;26631;-78
2021/10/02 07:14:27;;;;;;;53.48;28.83;;;;;;;11.19;94.56;101123.95;1661099;82;27461;-79
2021/10/02 07:16:54;;;;;;;44.05;24.90;;;;;;;11.22;94.66;101121.77;1652821;82;25871;-79
2021/10/02 07:19:21;;;;;;;44.93;26.12;;;;;;;11.27;94.48;101125.26;1679609;84;25885;-79
2021/10/02 07:21:48;;;;;;;48.92;28.00;;;;;;;11.30;94.50;101120.36;1720150;82;25853;-78
2021/10/02 07:24:15;;;;;;;52.43;29.75;;;;;;;11.33;94.44;101121.86;1692629;82;25936;-79
2021/10/02 07:26:44;;;;;;;41.30;24.87;;;;;;;11.36;94.27;101122.81;1647368;83;28162;-79
2021/10/02 07:29:11;;;;;;;45.55;28.23;;;;;;;11.39;94.26;101124.66;1711914;82;25836;-79
2021/10/02 07:31:38;;;;;;;51.60;31.17;;;;;;;11.45;94.41;101120.41;1697922;82;25830;-78
2021/10/02 07:34:06;;;;;;;50.63;31.68;;;;;;;11.48;94.31;101122.22;1723690;81;25827;-79
2021/10/02 07:36:33;;;;;;;46.28;28.75;;;;;;;11.53;94.13;101119.00;1712051;82;25849;-79
2021/10/02 07:39:00;;;;;;;39.42;25.65;;;;;;;11.59;94.29;101126.31;1697693;81;27577;-79
2021/10/02 07:41:28;;;;;;;41.20;26.75;;;;;;;11.64;94.14;101120.75;1727412;81;26146;-79
2021/10/02 07:44:00;;;;;;;38.02;23.80;;;;;;;11.71;94.26;101126.27;1698057;81;26056;-79
2021/10/02 07:46:30;;;;;;;33.98;21.57;;;;;;;11.75;93.97;101122.70;1725813;82;25955;-79
2021/10/02 07:48:58;;;;;;;33.88;22.07;;;;;;;11.79;93.92;101113.27;1691616;83;26580;-79
2021/10/02 07:51:25;;;;;;;34.78;22.13;;;;;;;11.84;93.72;101122.46;1727389;81;27479;-79
2021/10/02 07:53:55;;;;;;;32.93;20.60;;;;;;;11.87;93.48;101122.61;1727263;81;25892;-79
2021/10/02 07:56:23;;;;;;;39.13;21.33;;;;;;;11.91;93.55;101116.66;1689202;82;26005;-79
2021/10/02 07:58:54;;;;;;;37.25;21.65;;;;;;;11.96;93.50;101126.86;1677048;83;26136;-79
2021/10/02 08:01:22;;;;;;;33.40;20.15;;;;;;;11.99;93.34;101128.69;1722065;82;25779;-79
2021/10/02 08:03:52;;;;;;;36.08;20.25;;;;;;;12.05;93.26;101130.64;1672139;83;27539;-79
2021/10/02 08:06:22;;;;;;;28.83;19.60;;;;;;;12.10;93.47;101120.16;1676979;83;25800;-79
2021/10/02 08:08:51;;;;;;;32.10;21.00;;;;;;;12.12;92.93;101122.19;1672097;82;25976;-79
2021/10/02 08:11:18;;;;;;;31.25;20.12;;;;;;;12.17;92.77;101118.91;1716799;82;25807;-78
2021/10/02 08:13:45;;;;;;;30.92;20.88;;;;;;;12.22;92.81;101118.70;1720101;82;25800;-78
2021/10/02 08:16:15;;;;;;;29.02;19.42;;;;;;;12.28;92.59;101119.30;1671597;82;27526;-78
2021/10/02 08:18:45;;;;;;;30.32;20.57;;;;;;;12.32;92.44;101123.78;1693607;82;25900;-79
2021/10/02 08:21:13;;;;;;;32.20;21.00;;;;;;;12.35;92.23;101116.72;1696621;83;25874;-78
2021/10/02 08:23:42;;;;;;;34.67;21.65;;;;;;;12.42;92.34;101110.09;1690361;83;25770;-78
2021/10/02 08:26:14;;;;;;;29.67;20.12;;;;;;;12.47;92.13;101110.38;1691473;82;25345;-78
2021/10/02 08:28:48;;;;;;;25.82;18.77;;;;;;;12.54;92.31;101108.08;1699158;82;27625;-78
2021/10/02 08:31:19;;;;;;;29.40;20.08;;;;;;;12.63;92.03;101110.16;1720440;82;25874;-79
2021/10/02 08:33:47;;;;;;;28.20;19.05;;;;;;;12.70;91.66;101108.40;1682766;83;25842;-79
2021/10/02 08:36:14;;;;;;;28.30;18.67;;;;;;;12.76;91.60;101105.79;1680668;81;25874;-78
2021/10/02 08:38:42;;;;;;;28.95;19.62;;;;;;;12.87;91.55;101100.44;1698267;82;25403;-79
2021/10/02 08:41:10;;;;;;;26.90;18.60;;;;;;;12.97;91.34;101104.48;1724202;82;27460;-78
2021/10/02 08:43:39;;;;;;;31.15;18.77;;;;;;;13.05;90.88;101094.14;1685766;83;25949;-78
2021/10/02 08:46:09;;;;;;;26.23;16.87;;;;;;;13.12;90.75;101100.42;1661422;82;25844;-78
2021/10/02 08:48:37;;;;;;;26.73;18.07;;;;;;;13.18;90.77;101099.66;1688371;83;26545;-78
2021/10/02 08:51:05;;;;;;;28.32;19.15;;;;;;;13.24;90.32;101101.58;1721386;82;25930;-78
2021/10/02 08:53:33;;;;;;;30.45;18.98;;;;;;;13.30;89.99;101095.42;1689174;82;28233;-78
2021/10/02 08:56:02;;;;;;;28.15;18.50;;;;;;;13.38;90.08;101095.83;1662227;82;25932;-78
2021/10/02 08:58:30;;;;;;;28.70;18.48;;;;;;;13.43;89.63;101091.52;1673968;82;25823;-78
2021/10/02 09:01:00;;;;;;;21.27;16.80;;;;;;;13.50;89.83;101088.37;1720330;82;25863;-78
2021/10/02 09:03:27;;;;;;;25.82;18.00;;;;;;;13.60;89.62;101082.68;1683337;83;26069;-78
2021/10/02 09:05:55;;;;;;;29.15;17.67;;;;;;;13.69;89.21;101082.33;1677333;83;27595;-79
2021/10/02 09:08:23;;;;;;;24.00;18.05;;;;;;;13.75;88.84;101082.89;1676472;83;25837;-78
2021/10/02 09:10:50;;;;;;;26.52;18.60;;;;;;;13.77;88.42;101082.17;1743276;81;25744;-78
2021/10/02 09:13:17;;;;;;;24.02;18.10;;;;;;;13.81;88.43;101083.44;1716374;82;26667;-78
2021/10/02 09:15:44;;;;;;;23.87;17.12;;;;;;;13.91;88.18;101080.42;1642590;83;26515;-78
2021/10/02 09:18:11;;;;;;;22.07;15.80;;;;;;;13.97;87.80;101076.09;1677150;83;27536;-78
2021/10/02 09:20:38;;;;;;;20.20;15.18;;;;;;;14.00;87.80;101075.20;1723105;82;25834;-79
2021/10/02 09:23:08;;;;;;;19.75;14.53;;;;;;;14.02;87.21;101077.19;1707263;83;25878;-79
2021/10/02 09:25:40;;;;;;;19.85;14.73;;;;;;;14.10;87.40;101066.75;1677436;83;25804;-79
2021/10/02 09:28:11;;;;;;;20.15;15.68;;;;;;;14.18;87.46;101074.70;1679709;83;26012;-79
2021/10/02 09:30:42;;;;;;;22.65;15.78;;;;;;;14.24;86.83;101061.23;1710914;83;27513;-79
2021/10/02 09:33:22;;;;;;;20.80;15.60;;;;;;;14.32;86.74;101065.68;1722859;82;26127;-79
2021/10/02 09:35:50;;;;;;;21.73;14.53;;;;;;;14.42;86.95;101066.97;1719196;82;25865;-79
2021/10/02 09:38:20;;;;;;;22.05;15.20;;;;;;;14.53;86.58;101061.02;1698934;82;25600;-79
2021/10/02 09:40:57;;;;;;;21.07;13.93;;;;;;;14.60;86.02;101054.30;1717666;83;25573;-79
2021/10/02 09:43:27;;;;;;;17.25;13.40;;;;;;;14.64;85.73;101059.09;1713445;82;27370;-79
2021/10/02 09:45:54;;;;;;;17.17;13.40;;;;;;;14.67;85.41;101049.74;1655515;83;25774;-79
2021/10/02 09:48:31;;;;;;;21.20;14.07;;;;;;;14.70;85.16;101049.35;1664019;83;26736;-79
2021/10/02 09:51:09;;;;;;;18.65;14.03;;;;;;;14.77;85.57;101042.12;1728175;82;26678;-80
2021/10/02 09:53:42;;;;;;;16.93;13.72;;;;;;;14.88;84.45;101046.94;1738552;81;26063;-79
2021/10/02 09:56:12;;;;;;;17.70;13.62;;;;;;;14.92;84.72;101041.44;1708501;82;27506;-79
2021/10/02 09:58:41;;;;;;;16.43;12.73;;;;;;;14.99;83.63;101045.50;1710692;82;25360;-79
2021/10/02 10:01:31;;;;;;;18.00;12.73;;;;;;;15.02;84.20;101049.12;1743243;81;25962;-79
2021/10/02 10:03:54;;;;;;;21.15;12.98;;;;;;;15.08;83.53;101048.30;1687923;83;25811;-80
2021/10/02 10:06:25;;;;;;;17.92;13.15;;;;;;;15.10;83.42;101046.22;1689787;82;25906;-79
2021/10/02 10:09:14;;;;;;;17.92;13.13;;;;;;;15.09;82.68;101041.88;1701268;82;28180;-79
2021/10/02 10:11:45;;;;;;;19.25;13.08;;;;;;;15.07;82.50;101032.65;1725671;82;25354;-79
2021/10/02 10:14:25;;;;;;;22.90;15.55;;;;;;;15.05;82.51;101033.89;1728810;81;25894;-79
2021/10/02 10:16:55;;;;;;;18.90;13.40;;;;;;;15.02;82.26;101029.73;1668588;84;25842;-80
2021/10/02 10:19:28;;;;;;;19.55;13.18;;;;;;;14.98;82.04;101027.13;1645009;84;26054;-79
2021/10/02 10:22:18;;;;;;;15.00;12.60;;;;;;;15.00;82.52;101016.13;1696979;83;27432;-78
2021/10/02 10:25:06;;;;;;;15.28;12.68;;;;;;;15.05;82.12;101017.70;1673276;83;25855;-79
2021/10/02 10:27:41;;;;;;;17.20;12.33;;;;;;;15.05;81.93;101013.14;1670190;84;25727;-79
2021/10/02 10:30:24;;;;;;;14.90;11.85;;;;;;;15.10;81.97;101013.84;1698906;82;25801;-78
2021/10/02 10:33:02;;;;;;;21.45;12.95;;;;;;;15.14;81.95;101017.82;1730963;82;26479;-79
2021/10/02 10:35:45;;;;;;;16.55;12.15;;;;;;;15.21;81.81;101028.08;1728592;82;27357;-79
2021/10/02 10:38:17;;;;;;;18.17;12.40;;;;;;;15.27;81.42;101025.39;1673915;84;25900;-79
2021/10/02 10:40:45;;;;;;;14.45;11.28;;;;;;;15.33;81.34;101022.40;1675312;83;25912;-79
2021/10/02 10:43:12;;;;;;;15.98;12.18;;;;;;;15.40;81.59;101024.55;1730056;82;25797;-79
2021/10/02 10:45:39;;;;;;;20.75;11.78;;;;;;;15.53;81.60;101027.80;1730081;82;26678;-79
2021/10/02 10:48:08;;;;;;;16.17;12.03;;;;;;;15.62;81.56;101016.59;1645542;82;27574;-78
2021/10/02 10:50:40;;;;;;;15.03;11.90;;;;;;;15.74;81.44;101010.85;1703146;82;26638;-79
2021/10/02 10:53:08;;;;;;;17.02;12.47;;;;;;;15.86;81.63;101006.48;1703094;82;25862;-80
2021/10/02 10:55:49;;;;;;;14.28;11.08;;;;;;;15.97;80.56;101011.22;1725634;82;25807;-79
2021/10/02 10:58:29;;;;;;;20.35;12.20;;;;;;;16.05;80.21;101000.72;1725384;81;26668;-79
2021/10/02 11:00:58;;;;;;;14.93;11.27;;;;;;;16.16;80.15;101004.11;1675719;81;28201;-79
2021/10/02 11:03:46;;;;;;;17.77;11.78;;;;;;;16.26;80.38;101005.00;1755341;80;25950;-79
2021/10/02 11:06:18;;;;;;;14.28;11.73;;;;;;;16.35;79.95;101003.20;1730360;81;25893;-78
2021/10/02 11:09:07;;;;;;;13.80;11.25;;;;;;;16.48;79.61;100991.50;1721704;81;25828;-79
2021/10/02 11:11:53;;;;;;;15.95;11.00;;;;;;;16.55;78.87;100990.98;1702499;81;26563;-79
2021/10/02 11:14:42;;;;;;;13.93;10.95;;;;;;;16.58;77.75;100989.18;1664879;81;28476;-79
2021/10/02 11:17:09;;;;;;;16.15;10.48;;;;;;;16.59;77.98;100986.28;1725002;81;25961;-80
2021/10/02 11:19:39;;;;;;;18.07;12.28;;;;;;;16.63;77.95;100986.16;1730440;81;25899;-79
2021/10/02 11:23:08;;;;;;;15.43;11.65;;;;;;;16.67;77.95;100982.48;1685109;81;25885;-79
2021/10/02 11:25:36;;;;;;;15.45;12.00;;;;;;;16.68;77.47;100982.80;1695439;83;25845;-79
2021/10/02 11:28:27;;;;;;;18.60;10.82;;;;;;;16.72;77.80;100978.06;1720363;81;27465;-79
2021/10/02 11:30:55;;;;;;;19.23;11.15;;;;;;;16.77;77.49;100979.60;1723101;81;25935;-79
2021/10/02 11:33:35;;;;;;;16.67;11.57;;;;;;;16.84;77.46;100968.74;1694530;82;26665;-79
2021/10/02 11:36:24;;;;;;;14.23;10.08;;;;;;;16.89;77.36;100968.38;1642149;82;26623;-79
2021/10/02 11:39:11;;;;;;;14.98;10.30;;;;;;;16.93;76.48;100962.86;1713556;81;25949;-79
2021/10/02 11:41:57;;;;;;;15.13;10.65;;;;;;;16.97;76.66;100961.89;1723018;82;27476;-79
2021/10/02 11:44:39;;;;;;;15.43;9.98;;;;;;;17.05;76.38;100958.06;1690673;82;25877;-80
2021/10/02 11:47:38;;;;;;;12.47;10.05;;;;;;;17.14;76.67;100958.11;1691145;82;26303;-79
2021/10/02 11:50:19;;;;;;;12.40;9.55;;;;;;;17.22;76.04;100961.88;1726031;82;25421;-80
2021/10/02 11:52:53;;;;;;;13.30;10.43;;;;;;;17.27;76.39;100956.64;1720334;82;25828;-79
2021/10/02 11:55:45;;;;;;;14.18;10.13;;;;;;;17.32;75.79;100954.92;1684258;83;27584;-80
2021/10/02 11:58:13;;;;;;;13.68;10.18;;;;;;;17.40;75.57;100954.66;1671260;81;25979;-80
2021/10/02 12:00:55;;;;;;;12.70;10.28;;;;;;;17.49;75.49;100953.30;1726088;82;25832;-79
2021/10/02 12:03:32;;;;;;;13.65;9.95;;;;;;;17.60;75.13;100949.05;1723775;82;26158;-80
2021/10/02 12:06:03;;;;;;;11.40;9.65;;;;;;;17.66;74.40;100950.34;1679933;82;25808;-80
2021/10/02 12:08:32;;;;;;;;;;;;;;;17.73;74.46;100952.47;1694457;81;28135;-80
2021/10/02 12:11:09;;;;;;;14.50;10.38;;;;;;;17.77;73.73;100949.32;1718614;83;25887;-80
2021/10/02 12:13:45;;;;;;;16.10;10.43;;;;;;;17.75;73.03;100949.52;1706397;82;25913;-80
2021/10/02 12:16:19;;;;;;;15.25;10.70;;;;;;;17.80;73.30;100946.98;1688831;82;25805;-79
2021/10/02 12:19:07;;;;;;;12.80;10.50;;;;;;;17.88;73.03;100939.09;1681553;82;26002;-80
2021/10/02 12:21:44;;;;;;;12.60;10.43;;;;;;;18.05;73.52;100938.78;1728638;82;27553;-80
2021/10/02 12:24:19;;;;;;;14.78;11.45;;;;;;;18.22;72.78;100937.91;1683087;82;25818;-80
2021/10/02 12:26:59;;;;;;;13.15;10.75;;;;;;;18.37;72.25;100936.14;1702701;82;25836;-80